createdAt,value
2022-09-20T00:01:32.344Z,100.00
2022-09-20T00:04:06.870Z,100.00
2022-09-20T00:06:35.746Z,100.00
2022-09-20T00:09:04.888Z,100.00
2022-09-20T00:11:34.746Z,100.00
2022-09-20T00:14:05.948Z,100.00
2022-09-20T00:16:36.539Z,100.00
2022-09-20T00:19:07.009Z,100.00
2022-09-20T00:21:37.709Z,100.00
2022-09-20T00:24:06.006Z,100.00
2022-09-20T00:26:34.197Z,100.00
2022-09-20T00:29:02.146Z,100.00
2022-09-20T00:31:30.058Z,100.00
2022-09-20T00:34:17.038Z,100.00
2022-09-20T00:36:46.261Z,100.00
2022-09-20T00:39:16.063Z,100.00
2022-09-20T00:41:44.887Z,100.00
2022-09-20T00:44:44.300Z,100.00
2022-09-20T00:47:23.025Z,100.00
2022-09-20T00:49:53.253Z,100.00
2022-09-20T00:52:23.076Z,100.00
2022-09-20T00:54:51.343Z,100.00
2022-09-20T00:57:19.591Z,100.00
2022-09-20T00:59:50.505Z,100.00
2022-09-20T01:02:22.418Z,100.00
2022-09-20T01:04:51.196Z,100.00
2022-09-20T01:07:23.426Z,100.00
2022-09-20T01:09:52.048Z,100.00
2022-09-20T01:12:27.137Z,100.00
2022-09-20T01:14:56.644Z,100.00
2022-09-20T01:17:28.430Z,100.00
2022-09-20T01:20:16.756Z,100.00
2022-09-20T01:23:00.778Z,100.00
2022-09-20T01:25:52.924Z,100.00
2022-09-20T01:28:24.940Z,100.00
2022-09-20T01:31:02.993Z,100.00
2022-09-20T01:33:41.785Z,100.00
2022-09-20T01:36:14.973Z,100.00
2022-09-20T01:38:49.378Z,100.00
2022-09-20T01:41:24.767Z,100.00
2022-09-20T01:44:05.803Z,100.00
2022-09-20T01:46:35.670Z,100.00
2022-09-20T01:49:15.967Z,100.00
2022-09-20T01:52:37.886Z,100.00
2022-09-20T01:55:26.843Z,100.00
2022-09-20T01:58:18.920Z,100.00
2022-09-20T02:01:08.666Z,100.00
2022-09-20T02:04:04.563Z,100.00
2022-09-20T02:06:52.037Z,100.00
2022-09-20T02:09:46.873Z,100.00
2022-09-20T02:12:45.125Z,100.00
2022-09-20T02:15:30.900Z,100.00
2022-09-20T02:18:10.379Z,100.00
2022-09-20T02:20:48.482Z,100.00
2022-09-20T02:23:28.984Z,100.00
2022-09-20T02:26:11.659Z,100.00
2022-09-20T02:28:55.458Z,100.00
2022-09-20T02:31:34.522Z,100.00
2022-09-20T02:34:29.559Z,100.00
2022-09-20T02:37:16.848Z,100.00
2022-09-20T02:39:54.137Z,100.00
2022-09-20T02:42:26.711Z,100.00
2022-09-20T02:45:01.228Z,100.00
2022-09-20T02:47:34.871Z,100.00
2022-09-20T02:50:26.169Z,100.00
2022-09-20T02:53:08.643Z,100.00
2022-09-20T02:55:45.649Z,100.00
2022-09-20T02:58:40.035Z,100.00
2022-09-20T03:01:26.529Z,100.00
2022-09-20T03:04:04.015Z,100.00
2022-09-20T03:06:43.646Z,100.00
2022-09-20T03:09:18.404Z,100.00
2022-09-20T03:11:56.472Z,100.00
2022-09-20T03:14:30.035Z,100.00
2022-09-20T03:17:13.759Z,100.00
2022-09-20T03:19:51.670Z,100.00
2022-09-20T03:22:32.654Z,100.00
2022-09-20T03:25:16.191Z,100.00
2022-09-20T03:27:57.415Z,100.00
2022-09-20T03:30:41.454Z,100.00
2022-09-20T03:33:21.444Z,100.00
2022-09-20T03:36:08.856Z,100.00
2022-09-20T03:38:52.599Z,100.00
2022-09-20T03:41:30.280Z,100.00
2022-09-20T03:44:10.892Z,100.00
2022-09-20T03:46:46.518Z,100.00
2022-09-20T03:49:52.767Z,100.00
2022-09-20T03:52:36.458Z,100.00
2022-09-20T03:55:38.618Z,100.00
2022-09-20T03:58:21.196Z,100.00
2022-09-20T04:01:02.721Z,100.00
2022-09-20T04:03:41.038Z,100.00
2022-09-20T04:06:25.186Z,100.00
2022-09-20T04:09:10.518Z,100.00
2022-09-20T04:11:48.754Z,100.00
2022-09-20T04:14:24.343Z,100.00
2022-09-20T04:16:59.347Z,100.00
2022-09-20T04:19:34.306Z,100.00
2022-09-20T04:22:03.239Z,100.00
2022-09-20T04:24:42.015Z,100.00
2022-09-20T04:27:19.371Z,100.00
2022-09-20T04:29:54.120Z,100.00
2022-09-20T04:32:29.952Z,100.00
2022-09-20T04:35:21.908Z,100.00
2022-09-20T04:37:51.792Z,100.00
2022-09-20T04:40:37.129Z,100.00
2022-09-20T04:43:38.671Z,100.00
2022-09-20T04:46:33.627Z,100.00
2022-09-20T04:49:33.691Z,100.00
2022-09-20T04:52:26.313Z,100.00
2022-09-20T04:55:39.194Z,100.00
2022-09-20T04:58:46.910Z,100.00
2022-09-20T05:01:51.219Z,100.00
2022-09-20T05:05:09.290Z,100.00
2022-09-20T05:08:31.142Z,100.00
2022-09-20T05:11:43.117Z,100.00
2022-09-20T05:14:37.739Z,100.00
2022-09-20T05:17:19.861Z,100.00
2022-09-20T05:20:08.820Z,100.00
2022-09-20T05:23:03.633Z,100.00
2022-09-20T05:25:45.078Z,100.00
2022-09-20T05:28:22.886Z,100.00
2022-09-20T05:30:57.863Z,100.00
2022-09-20T05:33:33.340Z,100.00
2022-09-20T05:36:08.068Z,100.00
2022-09-20T05:38:47.917Z,100.00
2022-09-20T05:41:31.878Z,100.00
2022-09-20T05:44:09.462Z,100.00
2022-09-20T05:46:51.075Z,100.00
2022-09-20T05:49:37.331Z,100.00
2022-09-20T05:52:23.637Z,100.00
2022-09-20T05:55:13.745Z,100.00
2022-09-20T05:58:04.880Z,100.00
2022-09-20T06:00:40.654Z,100.00
2022-09-20T06:03:19.918Z,100.00
2022-09-20T06:05:56.953Z,100.00
2022-09-20T06:08:45.026Z,100.00
2022-09-20T06:11:30.088Z,100.00
2022-09-20T06:14:17.133Z,100.00
2022-09-20T06:16:54.257Z,100.00
2022-09-20T06:19:34.881Z,100.00
2022-09-20T06:22:09.096Z,100.00
2022-09-20T06:24:44.003Z,100.00
2022-09-20T06:27:16.867Z,100.00
2022-09-20T06:29:50.383Z,100.00
2022-09-20T06:32:19.366Z,100.00
2022-09-20T06:34:49.203Z,100.00
2022-09-20T06:37:53.122Z,100.00
2022-09-20T06:40:55.605Z,100.00
2022-09-20T06:43:23.471Z,100.00
2022-09-20T06:45:51.294Z,100.00
2022-09-20T06:48:19.741Z,100.00
2022-09-20T06:50:48.921Z,100.00
2022-09-20T06:53:19.605Z,100.00
2022-09-20T06:55:48.462Z,100.00
2022-09-20T06:58:16.379Z,100.00
2022-09-20T07:00:44.454Z,100.00
2022-09-20T07:03:13.433Z,100.00
2022-09-20T07:05:42.040Z,100.00
2022-09-20T07:08:12.089Z,100.00
2022-09-20T07:10:40.302Z,100.00
2022-09-20T07:13:08.193Z,100.00
2022-09-20T07:15:38.236Z,100.00
2022-09-20T07:18:07.061Z,100.00
2022-09-20T07:20:35.592Z,100.00
2022-09-20T07:23:06.524Z,100.00
2022-09-20T07:25:37.157Z,100.00
2022-09-20T07:28:05.170Z,100.00
2022-09-20T07:30:32.965Z,100.00
2022-09-20T07:33:00.933Z,100.00
2022-09-20T07:35:29.189Z,100.00
2022-09-20T07:37:59.704Z,100.00
2022-09-20T07:40:27.686Z,100.00
2022-09-20T07:42:58.711Z,100.00
2022-09-20T07:45:27.091Z,100.00
2022-09-20T07:47:55.157Z,100.00
2022-09-20T07:50:23.120Z,100.00
2022-09-20T07:52:50.964Z,100.00
2022-09-20T07:55:19.207Z,100.00
2022-09-20T07:57:47.006Z,100.00
2022-09-20T08:00:16.478Z,100.00
2022-09-20T08:02:45.420Z,100.00
2022-09-20T08:05:13.334Z,100.00
2022-09-20T08:07:41.146Z,100.00
2022-09-20T08:10:11.977Z,100.00
2022-09-20T08:15:32.946Z,100.00
2022-09-20T08:18:02.975Z,100.00
2022-09-20T08:20:30.920Z,100.00
2022-09-20T08:23:22.141Z,100.00
2022-09-20T08:25:48.270Z,100.00
2022-09-20T08:28:16.162Z,100.00
2022-09-20T08:30:45.465Z,100.00
2022-09-20T08:33:15.443Z,100.00
2022-09-20T08:35:43.246Z,100.00
2022-09-20T08:41:02.976Z,100.00
2022-09-20T08:43:36.255Z,100.00
2022-09-20T08:46:07.880Z,100.00
2022-09-20T08:48:36.008Z,100.00
2022-09-20T08:51:06.277Z,100.00
2022-09-20T08:53:34.997Z,100.00
2022-09-20T08:56:04.618Z,100.00
2022-09-20T08:58:32.592Z,100.00
2022-09-20T09:01:05.183Z,100.00
2022-09-20T09:03:35.059Z,100.00
2022-09-20T09:06:04.817Z,100.00
2022-09-20T09:08:38.220Z,100.00
2022-09-20T09:11:13.677Z,100.00
2022-09-20T09:13:52.714Z,100.00
2022-09-20T09:16:28.693Z,100.00
2022-09-20T09:19:33.378Z,100.00
2022-09-20T09:22:03.826Z,100.00
2022-09-20T09:24:32.122Z,100.00
2022-09-20T09:27:09.730Z,100.00
2022-09-20T09:29:49.351Z,100.00
2022-09-20T09:32:23.463Z,100.00
2022-09-20T09:34:52.751Z,100.00
2022-09-20T09:37:28.854Z,100.00
2022-09-20T09:40:16.405Z,100.00
2022-09-20T09:42:52.931Z,100.00
2022-09-20T09:45:30.273Z,100.00
2022-09-20T09:47:59.962Z,100.00
2022-09-20T09:50:31.663Z,100.00
2022-09-20T09:53:07.152Z,100.00
2022-09-20T09:56:01.026Z,100.00
2022-09-20T09:58:41.565Z,100.00
2022-09-20T10:01:20.968Z,100.00
2022-09-20T10:03:56.999Z,100.00
2022-09-20T10:06:33.683Z,100.00
2022-09-20T10:09:13.249Z,100.00
2022-09-20T10:11:58.458Z,100.00
2022-09-20T10:14:44.877Z,100.00
2022-09-20T10:17:26.558Z,100.00
2022-09-20T10:20:08.293Z,100.00
2022-09-20T10:23:14.763Z,100.00
2022-09-20T10:25:43.912Z,100.00
2022-09-20T10:28:28.172Z,100.00
2022-09-20T10:31:07.230Z,100.00
2022-09-20T10:33:44.189Z,100.00
2022-09-20T10:36:20.799Z,100.00
2022-09-20T10:38:57.577Z,100.00
2022-09-20T10:42:00.155Z,100.00
2022-09-20T10:44:41.457Z,100.00
2022-09-20T10:47:15.128Z,100.00
2022-09-20T10:49:50.801Z,100.00
2022-09-20T10:52:43.621Z,100.00
2022-09-20T10:55:27.814Z,100.00
2022-09-20T10:58:17.044Z,100.00
2022-09-20T11:00:53.635Z,100.00
2022-09-20T11:03:35.318Z,100.00
2022-09-20T11:06:14.782Z,100.00
2022-09-20T11:08:44.926Z,100.00
2022-09-20T11:11:21.033Z,100.00
2022-09-20T11:13:59.118Z,100.00
2022-09-20T11:16:34.036Z,100.00
2022-09-20T11:19:06.312Z,100.00
2022-09-20T11:21:39.418Z,100.00
2022-09-20T11:24:19.899Z,100.00
2022-09-20T11:26:52.524Z,100.00
2022-09-20T11:29:27.092Z,100.00
2022-09-20T11:31:59.235Z,100.00
2022-09-20T11:34:32.963Z,100.00
2022-09-20T11:37:03.229Z,100.00
2022-09-20T11:39:40.313Z,100.00
2022-09-20T11:42:16.150Z,100.00
2022-09-20T11:44:44.591Z,100.00
2022-09-20T11:47:36.917Z,100.00
2022-09-20T11:50:45.892Z,100.00
2022-09-20T11:53:35.901Z,100.00
2022-09-20T11:56:11.189Z,100.00
2022-09-20T11:58:48.735Z,100.00
2022-09-20T12:01:28.246Z,100.00
2022-09-20T12:04:27.880Z,100.00
2022-09-20T12:06:48.696Z,100.00
2022-09-20T12:09:25.240Z,100.00
2022-09-20T12:11:53.624Z,100.00
2022-09-20T12:14:26.004Z,100.00
2022-09-20T12:16:55.292Z,100.00
2022-09-20T12:19:39.996Z,100.00
2022-09-20T12:22:28.448Z,100.00
2022-09-20T12:25:36.392Z,100.00
2022-09-20T12:28:05.298Z,100.00
2022-09-20T12:30:34.436Z,100.00
2022-09-20T12:33:02.550Z,100.00
2022-09-20T12:36:17.157Z,100.00
2022-09-20T12:38:58.416Z,100.00
2022-09-20T12:41:28.886Z,100.00
2022-09-20T12:44:06.835Z,100.00
2022-09-20T12:46:55.984Z,100.00
2022-09-20T12:49:50.470Z,100.00
2022-09-20T12:52:45.565Z,100.00
2022-09-20T12:55:31.322Z,100.00
2022-09-20T12:58:02.262Z,100.00
2022-09-20T13:00:36.363Z,100.00
2022-09-20T13:03:23.696Z,100.00
2022-09-20T13:06:12.427Z,100.00
2022-09-20T13:08:43.892Z,100.00
2022-09-20T13:11:17.846Z,86.47
2022-09-20T13:13:50.569Z,89.81
2022-09-20T13:16:23.357Z,90.18
2022-09-20T13:19:02.152Z,89.18
2022-09-20T13:21:30.478Z,85.87
2022-09-20T13:23:59.457Z,84.35
2022-09-20T13:26:31.025Z,82.30
2022-09-20T13:29:00.102Z,82.18
2022-09-20T13:31:33.689Z,76.03
2022-09-20T13:34:20.726Z,80.05
2022-09-20T13:36:54.092Z,75.51
2022-09-20T13:39:28.732Z,74.50
2022-09-20T13:42:02.262Z,76.94
2022-09-20T13:44:33.449Z,70.58
2022-09-20T13:47:01.418Z,71.40
2022-09-20T13:49:33.722Z,78.32
2022-09-20T13:52:21.452Z,77.85
2022-09-20T13:54:49.317Z,77.92
2022-09-20T13:57:22.450Z,72.56
2022-09-20T13:59:54.055Z,72.79
2022-09-20T14:02:24.082Z,67.37
2022-09-20T14:04:55.984Z,71.61
2022-09-20T14:07:28.179Z,71.40
2022-09-20T14:09:58.195Z,72.08
2022-09-20T14:12:27.950Z,71.67
2022-09-20T14:14:56.537Z,70.52
2022-09-20T14:17:25.828Z,70.57
2022-09-20T14:19:57.386Z,75.82
2022-09-20T14:22:27.493Z,74.52
2022-09-20T14:25:01.188Z,78.76
2022-09-20T14:27:31.103Z,79.95
2022-09-20T14:29:59.452Z,78.53
2022-09-20T14:32:39.377Z,76.07
2022-09-20T14:35:17.008Z,73.81
2022-09-20T14:37:47.850Z,74.51
2022-09-20T14:40:27.478Z,77.09
2022-09-20T14:42:57.894Z,69.75
2022-09-20T14:45:30.400Z,74.13
2022-09-20T14:48:06.682Z,72.88
2022-09-20T14:50:43.224Z,74.81
2022-09-20T14:53:29.643Z,72.12
2022-09-20T14:56:09.605Z,72.69
2022-09-20T14:59:04.514Z,76.71
2022-09-20T15:01:33.185Z,71.28
2022-09-20T15:04:08.713Z,68.22
2022-09-20T15:06:39.983Z,68.37
2022-09-20T15:09:08.079Z,70.44
2022-09-20T15:11:35.890Z,71.27
2022-09-20T15:14:03.750Z,73.12
2022-09-20T15:16:31.598Z,73.21
2022-09-20T15:18:59.487Z,75.83
2022-09-20T15:21:27.717Z,78.92
2022-09-20T15:23:57.064Z,78.24
2022-09-20T15:26:24.873Z,80.65
2022-09-20T15:28:52.738Z,82.01
2022-09-20T15:31:22.648Z,85.06
2022-09-20T15:33:50.687Z,85.55
2022-09-20T15:36:18.582Z,86.91
2022-09-20T15:38:48.794Z,89.68
2022-09-20T15:41:17.984Z,94.75
2022-09-20T15:43:45.830Z,97.95
2022-09-20T15:46:22.092Z,99.64
2022-09-20T15:48:50.304Z,100.00
2022-09-20T15:51:21.288Z,100.00
2022-09-20T15:53:56.609Z,100.00
2022-09-20T15:56:28.382Z,100.00
2022-09-20T15:59:00.974Z,100.00
2022-09-20T16:01:30.092Z,100.00
2022-09-20T16:03:57.928Z,100.00
2022-09-20T16:06:26.594Z,100.00
2022-09-20T16:08:54.517Z,100.00
2022-09-20T16:11:23.301Z,100.00
2022-09-20T16:13:55.883Z,100.00
2022-09-20T16:16:24.043Z,100.00
2022-09-20T16:19:09.640Z,100.00
2022-09-20T16:21:39.230Z,100.00
2022-09-20T16:24:08.449Z,100.00
2022-09-20T16:26:37.870Z,100.00
2022-09-20T16:29:07.811Z,100.00
2022-09-20T16:31:39.863Z,100.00
2022-09-20T16:34:13.560Z,100.00
2022-09-20T16:36:45.358Z,100.00
2022-09-20T16:39:14.724Z,100.00
2022-09-20T16:41:43.085Z,100.00
2022-09-20T16:44:13.063Z,100.00
2022-09-20T16:46:40.897Z,100.00
2022-09-20T16:49:12.397Z,100.00
2022-09-20T16:51:42.746Z,100.00
2022-09-20T16:54:13.039Z,100.00
2022-09-20T16:56:43.149Z,100.00
2022-09-20T16:59:13.303Z,100.00
2022-09-20T17:01:42.313Z,100.00
2022-09-20T17:04:13.363Z,100.00
2022-09-20T17:06:43.094Z,100.00
2022-09-20T17:09:12.064Z,100.00
2022-09-20T17:11:44.551Z,100.00
2022-09-20T17:14:16.390Z,100.00
2022-09-20T17:16:47.453Z,100.00
2022-09-20T17:19:18.298Z,100.00
2022-09-20T17:21:50.868Z,100.00
2022-09-20T17:24:20.519Z,100.00
2022-09-20T17:26:48.868Z,100.00
2022-09-20T17:29:19.581Z,100.00
2022-09-20T17:31:54.490Z,100.00
2022-09-20T17:34:24.546Z,100.00
2022-09-20T17:36:55.544Z,100.00
2022-09-20T17:39:24.420Z,100.00
2022-09-20T17:41:52.566Z,100.00
2022-09-20T17:44:21.851Z,100.00
2022-09-20T17:46:51.074Z,100.00
2022-09-20T17:49:20.823Z,100.00
2022-09-20T17:51:50.632Z,100.00
2022-09-20T17:54:19.101Z,100.00
2022-09-20T17:56:48.714Z,100.00
2022-09-20T17:59:21.412Z,100.00
2022-09-20T18:01:50.671Z,100.00
2022-09-20T18:04:20.778Z,100.00
2022-09-20T18:06:50.583Z,100.00
2022-09-20T18:09:19.916Z,100.00
2022-09-20T18:11:49.920Z,100.00
2022-09-20T18:14:20.254Z,100.00
2022-09-20T18:16:52.477Z,100.00
2022-09-20T18:19:22.575Z,100.00
2022-09-20T18:21:52.876Z,100.00
2022-09-20T18:24:20.753Z,100.00
2022-09-20T18:26:48.558Z,100.00
2022-09-20T18:29:18.808Z,100.00
2022-09-20T18:31:53.111Z,100.00
2022-09-20T18:34:25.592Z,100.00
2022-09-20T18:36:55.258Z,100.00
2022-09-20T18:39:24.084Z,100.00
2022-09-20T18:41:53.169Z,100.00
2022-09-20T18:44:22.037Z,100.00
2022-09-20T18:46:52.913Z,100.00
2022-09-20T18:49:21.543Z,100.00
2022-09-20T18:51:49.983Z,100.00
2022-09-20T18:54:18.863Z,100.00
2022-09-20T18:56:49.115Z,100.00
2022-09-20T18:59:21.293Z,100.00
2022-09-20T19:02:24.572Z,100.00
2022-09-20T19:05:08.423Z,100.00
2022-09-20T19:07:48.124Z,100.00
2022-09-20T19:10:25.949Z,100.00
2022-09-20T19:13:00.650Z,100.00
2022-09-20T19:15:49.327Z,100.00
2022-09-20T19:18:31.368Z,100.00
2022-09-20T19:21:16.342Z,100.00
2022-09-20T19:24:01.108Z,100.00
2022-09-20T19:26:32.390Z,100.00
2022-09-20T19:29:01.268Z,100.00
2022-09-20T19:31:31.701Z,100.00
2022-09-20T19:34:01.920Z,100.00
2022-09-20T19:36:40.257Z,100.00
2022-09-20T19:39:14.221Z,100.00
2022-09-20T19:41:51.945Z,100.00
2022-09-20T19:44:35.769Z,100.00
2022-09-20T19:47:21.004Z,100.00
2022-09-20T19:49:54.879Z,100.00
2022-09-20T19:52:24.872Z,100.00
2022-09-20T19:54:53.467Z,100.00
2022-09-20T19:57:28.810Z,100.00
2022-09-20T19:59:57.826Z,100.00
2022-09-20T20:02:26.470Z,100.00
2022-09-20T20:04:54.890Z,100.00
2022-09-20T20:07:33.263Z,100.00
2022-09-20T20:10:13.828Z,100.00
2022-09-20T20:12:51.032Z,100.00
2022-09-20T20:15:32.276Z,100.00
2022-09-20T20:18:07.468Z,100.00
2022-09-20T20:20:40.698Z,100.00
2022-09-20T20:23:40.701Z,100.00
2022-09-20T20:26:10.768Z,100.00
2022-09-20T20:28:38.969Z,100.00
2022-09-20T20:31:08.606Z,100.00
2022-09-20T20:33:36.552Z,100.00
2022-09-20T20:36:08.832Z,100.00
2022-09-20T20:38:41.557Z,100.00
2022-09-20T20:41:11.072Z,100.00
2022-09-20T20:43:40.818Z,100.00
2022-09-20T20:46:11.213Z,100.00
2022-09-20T20:48:39.306Z,100.00
2022-09-20T20:51:09.435Z,100.00
2022-09-20T20:53:38.871Z,100.00
2022-09-20T20:56:10.413Z,100.00
2022-09-20T20:58:40.680Z,100.00
2022-09-20T21:01:13.562Z,100.00
2022-09-20T21:03:42.999Z,100.00
2022-09-20T21:06:11.763Z,100.00
2022-09-20T21:08:43.851Z,100.00
2022-09-20T21:11:18.029Z,100.00
2022-09-20T21:13:48.270Z,100.00
2022-09-20T21:16:17.990Z,100.00
2022-09-20T21:18:47.534Z,100.00
2022-09-20T21:21:17.651Z,100.00
2022-09-20T21:23:47.024Z,100.00
2022-09-20T21:26:16.451Z,100.00
2022-09-20T21:28:46.003Z,100.00
2022-09-20T21:31:14.519Z,100.00
2022-09-20T21:33:43.562Z,100.00
2022-09-20T21:36:15.304Z,100.00
2022-09-20T21:38:46.495Z,100.00
2022-09-20T21:41:17.985Z,100.00
2022-09-20T21:43:48.947Z,100.00
2022-09-20T21:46:18.856Z,100.00
2022-09-20T21:48:48.155Z,100.00
2022-09-20T21:51:18.114Z,100.00
2022-09-20T21:53:46.573Z,100.00
2022-09-20T21:56:17.555Z,100.00
2022-09-20T21:58:45.904Z,100.00
2022-09-20T22:01:16.472Z,100.00
2022-09-20T22:03:48.301Z,100.00
2022-09-20T22:06:18.445Z,100.00
2022-09-20T22:08:49.177Z,100.00
2022-09-20T22:11:19.297Z,100.00
2022-09-20T22:13:49.666Z,100.00
2022-09-20T22:16:20.188Z,100.00
2022-09-20T22:18:48.973Z,100.00
2022-09-20T22:21:19.430Z,100.00
2022-09-20T22:23:50.766Z,100.00
2022-09-20T22:26:22.655Z,100.00
2022-09-20T22:28:51.598Z,100.00
2022-09-20T22:31:23.099Z,100.00
2022-09-20T22:33:53.720Z,100.00
2022-09-20T22:36:26.419Z,100.00
2022-09-20T22:38:54.953Z,100.00
2022-09-20T22:41:24.845Z,100.00
2022-09-20T22:43:52.969Z,100.00
2022-09-20T22:46:23.158Z,100.00
2022-09-20T22:48:53.433Z,100.00
2022-09-20T22:51:23.339Z,100.00
2022-09-20T22:53:52.949Z,100.00
2022-09-20T22:56:24.939Z,100.00
2022-09-20T22:58:55.505Z,100.00
2022-09-20T23:01:25.095Z,100.00
2022-09-20T23:03:56.019Z,100.00
2022-09-20T23:06:27.343Z,100.00
2022-09-20T23:08:57.269Z,100.00
2022-09-20T23:11:27.592Z,100.00
2022-09-20T23:13:57.033Z,100.00
2022-09-20T23:16:29.751Z,100.00
2022-09-20T23:19:00.144Z,100.00
2022-09-20T23:21:29.225Z,100.00
2022-09-20T23:23:58.598Z,100.00
2022-09-20T23:26:30.533Z,100.00
2022-09-20T23:29:00.823Z,100.00
2022-09-20T23:31:30.513Z,100.00
2022-09-20T23:34:00.669Z,100.00
2022-09-20T23:36:35.491Z,100.00
2022-09-20T23:39:03.414Z,100.00
2022-09-20T23:41:36.513Z,100.00
2022-09-20T23:44:07.425Z,100.00
2022-09-20T23:46:38.448Z,100.00
2022-09-20T23:49:09.086Z,100.00
2022-09-20T23:51:39.536Z,100.00
2022-09-20T23:54:07.649Z,100.00
2022-09-20T23:56:37.009Z,100.00
2022-09-20T23:59:04.905Z,100.00
